Terminal Aerodrome Forecast
Issued by NWS Sioux Falls, SD

Home | Current Version | Previous Version | Graphics & Text | Print | Product List | Glossary Off
Versions: 1 2 3 4 5 6 7 8 9 10 11 12 13 14

000
FTUS43 KFSD 161724
TAFSUX
TAF
KSUX 161724Z 1618/1718 19013G20KT P6SM FEW250
     FM170100 18008KT P6SM FEW250
     FM170200 17008KT P6SM SKC WS014/22035KT
     FM170500 17006KT P6SM SKC WS014/25035KT
     FM170700 16005KT P6SM SKC
     FM171600 20008KT P6SM SKC=

USA.gov is the U.S. government's official web portal to all federal, state and local government web resources and services.